createdAt,value
2019-04-25T00:00:14.630Z,14.90
2019-04-25T00:02:44.795Z,15.00
2019-04-25T00:05:13.896Z,15.00
2019-04-25T00:07:43.047Z,15.10
2019-04-25T00:10:13.772Z,15.10
2019-04-25T00:12:43.347Z,15.20
2019-04-25T00:15:12.771Z,15.20
2019-04-25T00:17:42.300Z,15.20
2019-04-25T00:20:12.093Z,15.10
2019-04-25T00:22:53.237Z,15.10
2019-04-25T00:25:31.331Z,15.00
2019-04-25T00:28:01.707Z,14.90
2019-04-25T00:30:31.839Z,14.80
2019-04-25T00:33:01.917Z,14.70
2019-04-25T00:35:31.556Z,14.40
2019-04-25T00:38:00.043Z,14.30
2019-04-25T00:40:28.764Z,14.20
2019-04-25T00:42:57.246Z,14.10
2019-04-25T00:45:25.657Z,14.00
2019-04-25T00:47:54.097Z,13.80
2019-04-25T00:50:22.502Z,13.80
2019-04-25T00:52:53.251Z,13.70
2019-04-25T00:55:28.705Z,13.70
2019-04-25T00:57:53.634Z,13.70
2019-04-25T01:00:29.680Z,13.60
2019-04-25T01:02:59.746Z,13.60
2019-04-25T01:05:28.156Z,13.70
2019-04-25T01:07:56.948Z,13.60
2019-04-25T01:10:25.536Z,13.50
2019-04-25T01:12:54.521Z,13.40
2019-04-25T01:15:23.314Z,13.40
2019-04-25T01:17:52.603Z,13.30
2019-04-25T01:20:21.826Z,13.20
2019-04-25T01:22:50.224Z,13.20
2019-04-25T01:25:18.955Z,13.20
2019-04-25T01:27:47.695Z,13.20
2019-04-25T01:30:19.977Z,13.10
2019-04-25T01:32:48.745Z,13.20
2019-04-25T01:35:27.280Z,13.00
2019-04-25T01:38:00.292Z,13.00
2019-04-25T01:40:47.111Z,13.00
2019-04-25T01:43:18.311Z,12.90
2019-04-25T01:45:48.177Z,12.90
2019-04-25T01:48:17.393Z,12.80
2019-04-25T01:50:45.795Z,12.70
2019-04-25T01:53:14.628Z,12.60
2019-04-25T01:55:53.702Z,12.40
2019-04-25T01:58:13.776Z,12.40
2019-04-25T02:00:50.396Z,12.20
2019-04-25T02:03:20.289Z,12.20
2019-04-25T02:05:48.892Z,12.10
2019-04-25T02:08:17.338Z,12.00
2019-04-25T02:10:47.386Z,12.00
2019-04-25T02:13:20.451Z,12.00
2019-04-25T02:15:48.878Z,11.90
2019-04-25T02:18:17.313Z,11.90
2019-04-25T02:20:46.037Z,11.90
2019-04-25T02:23:14.444Z,11.90
2019-04-25T02:25:44.305Z,11.80
2019-04-25T02:28:15.549Z,11.80
2019-04-25T02:30:45.402Z,11.80
2019-04-25T02:33:14.217Z,11.80
2019-04-25T02:35:46.169Z,11.80
2019-04-25T02:38:16.637Z,11.70
2019-04-25T02:40:45.423Z,11.70
2019-04-25T02:43:14.267Z,11.60
2019-04-25T02:46:02.237Z,11.50
2019-04-25T02:48:47.949Z,11.50
2019-04-25T02:51:35.005Z,11.40
2019-04-25T02:54:06.776Z,11.30
2019-04-25T02:56:38.223Z,11.40
2019-04-25T02:59:06.955Z,11.40
2019-04-25T03:01:34.597Z,11.40
2019-04-25T03:04:08.585Z,11.40
2019-04-25T03:06:35.041Z,11.40
2019-04-25T03:09:06.474Z,11.30
2019-04-25T03:11:35.481Z,11.40
2019-04-25T03:14:06.602Z,11.30
2019-04-25T03:16:34.841Z,11.30
2019-04-25T03:19:11.040Z,11.40
2019-04-25T03:21:45.156Z,11.30
2019-04-25T03:24:16.589Z,11.30
2019-04-25T03:26:44.367Z,11.20
2019-04-25T03:29:13.650Z,11.20
2019-04-25T03:31:44.756Z,11.30
2019-04-25T03:34:19.066Z,11.30
2019-04-25T03:36:43.832Z,11.30
2019-04-25T03:39:14.474Z,11.30
2019-04-25T03:41:43.829Z,11.20
2019-04-25T03:44:13.941Z,11.30
2019-04-25T03:46:43.829Z,11.40
2019-04-25T03:49:13.561Z,11.30
2019-04-25T03:51:43.886Z,11.30
2019-04-25T03:57:38.683Z,11.20
2019-04-25T04:00:07.610Z,11.20
2019-04-25T04:02:36.350Z,11.10
2019-04-25T04:05:06.922Z,11.10
2019-04-25T04:07:36.151Z,11.20
2019-04-25T04:10:06.710Z,11.10
2019-04-25T04:12:35.564Z,11.10
2019-04-25T04:15:06.955Z,11.00
2019-04-25T04:17:37.096Z,10.90
2019-04-25T04:20:08.884Z,10.90
2019-04-25T04:22:38.944Z,10.90
2019-04-25T04:25:09.531Z,11.00
2019-04-25T04:27:38.326Z,11.00
2019-04-25T04:30:08.088Z,11.00
2019-04-25T04:32:36.743Z,11.00
2019-04-25T04:35:07.313Z,11.00
2019-04-25T04:37:35.805Z,11.00
2019-04-25T04:40:07.920Z,11.00
2019-04-25T04:42:36.587Z,11.00
2019-04-25T04:45:06.686Z,11.10
2019-04-25T04:47:35.131Z,11.00
2019-04-25T04:50:04.198Z,11.10
2019-04-25T04:52:34.094Z,11.10
2019-04-25T04:55:08.402Z,11.10
2019-04-25T04:57:35.966Z,11.10
2019-04-25T05:00:04.945Z,11.20
2019-04-25T05:02:37.778Z,11.20
2019-04-25T05:05:12.018Z,11.20
2019-04-25T05:07:43.921Z,11.20
2019-04-25T05:10:14.704Z,11.30
2019-04-25T05:12:43.797Z,11.30
2019-04-25T05:15:15.305Z,11.30
2019-04-25T05:17:44.011Z,11.20
2019-04-25T05:20:13.305Z,11.20
2019-04-25T05:22:44.429Z,11.10
2019-04-25T05:25:16.216Z,11.20
2019-04-25T05:27:57.791Z,11.20
2019-04-25T05:30:17.907Z,11.20
2019-04-25T05:32:46.684Z,11.20
2019-04-25T05:35:17.782Z,11.30
2019-04-25T05:37:46.812Z,11.30
2019-04-25T05:40:17.065Z,11.30
2019-04-25T05:42:50.295Z,11.40
2019-04-25T05:45:21.274Z,11.40
2019-04-25T05:47:50.398Z,11.50
2019-04-25T05:50:19.850Z,11.60
2019-04-25T05:52:48.639Z,11.80
2019-04-25T05:55:19.789Z,11.90
2019-04-25T05:57:50.232Z,12.10
2019-04-25T06:00:19.013Z,12.20
2019-04-25T06:02:47.862Z,12.30
2019-04-25T06:05:17.457Z,12.40
2019-04-25T06:07:46.493Z,12.60
2019-04-25T06:10:26.695Z,12.80
2019-04-25T06:13:09.519Z,12.90
2019-04-25T06:15:37.922Z,12.90
2019-04-25T06:18:14.230Z,13.00
2019-04-25T06:20:44.192Z,13.00
2019-04-25T06:23:30.952Z,13.10
2019-04-25T06:25:59.412Z,13.00
2019-04-25T06:28:29.489Z,13.10
2019-04-25T06:30:58.255Z,13.10
2019-04-25T06:33:27.118Z,13.30
2019-04-25T06:35:56.931Z,13.40
2019-04-25T06:38:27.163Z,13.60
2019-04-25T06:40:55.816Z,13.70
2019-04-25T06:43:25.492Z,13.80
2019-04-25T06:46:14.096Z,14.00
2019-04-25T06:48:45.632Z,14.10
2019-04-25T06:51:14.745Z,14.20
2019-04-25T06:53:44.471Z,14.30
2019-04-25T06:56:13.670Z,14.40
2019-04-25T06:58:43.891Z,14.50
2019-04-25T07:01:13.479Z,14.50
2019-04-25T07:03:44.068Z,14.70
2019-04-25T07:06:12.978Z,14.80
2019-04-25T07:08:44.692Z,14.90
2019-04-25T07:11:14.000Z,14.90
2019-04-25T07:13:43.851Z,15.00
2019-04-25T07:16:13.430Z,15.10
2019-04-25T07:18:43.619Z,15.20
2019-04-25T07:21:12.204Z,15.30
2019-04-25T07:23:41.117Z,15.50
2019-04-25T07:26:13.450Z,15.60
2019-04-25T07:28:58.920Z,15.90
2019-04-25T07:31:38.387Z,16.00
2019-04-25T07:34:15.160Z,16.10
2019-04-25T07:36:45.529Z,16.10
2019-04-25T07:39:14.211Z,16.40
2019-04-25T07:41:44.092Z,16.40
2019-04-25T07:44:14.569Z,16.60
2019-04-25T07:46:43.679Z,16.60
2019-04-25T07:49:13.534Z,16.70
2019-04-25T07:51:43.194Z,16.80
2019-04-25T07:54:12.284Z,16.70
2019-04-25T07:56:40.786Z,16.80
2019-04-25T07:59:09.346Z,17.00
2019-04-25T08:01:39.085Z,17.10
2019-04-25T08:04:07.949Z,17.10
2019-04-25T08:06:36.446Z,17.20
2019-04-25T08:09:08.065Z,17.30
2019-04-25T08:11:36.483Z,17.20
2019-04-25T08:14:18.948Z,17.20
2019-04-25T08:16:51.782Z,17.10
2019-04-25T08:19:20.677Z,17.10
2019-04-25T08:21:49.793Z,17.20
2019-04-25T08:24:18.679Z,17.40
2019-04-25T08:26:47.618Z,17.40
2019-04-25T08:29:16.292Z,17.60
2019-04-25T08:31:45.411Z,17.70
2019-04-25T08:34:14.657Z,17.90
2019-04-25T08:36:45.586Z,18.10
2019-04-25T08:39:14.530Z,18.30
2019-04-25T08:41:45.431Z,18.20
2019-04-25T08:44:14.259Z,18.20
2019-04-25T08:46:44.192Z,18.20
2019-04-25T08:49:14.730Z,18.30
2019-04-25T08:51:45.433Z,18.20
2019-04-25T08:54:32.602Z,18.20
2019-04-25T08:57:04.344Z,18.20
2019-04-25T08:59:44.745Z,18.30
2019-04-25T09:02:15.299Z,18.20
2019-04-25T09:05:01.815Z,18.20
2019-04-25T09:07:30.521Z,18.20
2019-04-25T09:09:58.987Z,18.10
2019-04-25T09:12:27.960Z,18.10
2019-04-25T09:14:56.439Z,18.00
2019-04-25T09:17:25.004Z,18.00
2019-04-25T09:19:54.217Z,18.00
2019-04-25T09:22:24.243Z,18.20
2019-04-25T09:24:53.974Z,18.40
2019-04-25T09:27:23.534Z,18.60
2019-04-25T09:29:54.044Z,18.50
2019-04-25T09:32:23.878Z,18.50
2019-04-25T09:34:54.064Z,18.70
2019-04-25T09:37:24.608Z,18.80
2019-04-25T09:39:57.940Z,18.80
2019-04-25T09:42:26.875Z,18.80
2019-04-25T09:45:09.321Z,18.90
2019-04-25T09:47:39.203Z,18.90
2019-04-25T09:50:09.756Z,19.00
2019-04-25T09:52:38.153Z,19.10
2019-04-25T09:55:18.134Z,19.30
2019-04-25T09:57:57.439Z,19.50
2019-04-25T10:00:30.526Z,19.80
2019-04-25T10:02:59.021Z,19.80
2019-04-25T10:05:27.510Z,19.60
2019-04-25T10:07:56.449Z,19.50
2019-04-25T10:10:25.878Z,19.40
2019-04-25T10:12:54.921Z,19.40
2019-04-25T10:15:46.588Z,19.30
2019-04-25T10:18:17.072Z,19.10
2019-04-25T10:20:47.509Z,18.90
2019-04-25T10:23:16.689Z,19.00
2019-04-25T10:25:46.535Z,18.90
2019-04-25T10:28:15.827Z,18.70
2019-04-25T10:30:44.890Z,18.50
2019-04-25T10:33:15.098Z,18.40
2019-04-25T10:35:50.670Z,18.50
2019-04-25T10:38:14.689Z,18.60
2019-04-25T10:40:46.155Z,18.60
2019-04-25T10:43:16.161Z,18.60
2019-04-25T10:45:46.357Z,18.80
2019-04-25T10:48:16.591Z,19.10
2019-04-25T10:50:47.043Z,19.60
2019-04-25T10:53:16.505Z,20.00
2019-04-25T10:55:46.332Z,20.30
2019-04-25T10:58:14.980Z,20.60
2019-04-25T11:00:47.452Z,20.90
2019-04-25T11:03:26.617Z,21.30
2019-04-25T11:05:55.896Z,21.50
2019-04-25T11:08:25.069Z,21.50
2019-04-25T11:10:54.928Z,21.50
2019-04-25T11:13:24.142Z,21.30
2019-04-25T11:15:55.574Z,21.10
2019-04-25T11:18:23.848Z,21.10
2019-04-25T11:20:53.580Z,21.20
2019-04-25T11:23:22.903Z,21.10
2019-04-25T11:25:54.162Z,21.40
2019-04-25T11:28:23.430Z,21.90
2019-04-25T11:30:52.762Z,23.10
2019-04-25T11:33:23.019Z,24.00
2019-04-25T11:35:55.999Z,24.80
2019-04-25T11:38:41.500Z,25.30
2019-04-25T11:41:20.902Z,25.70
2019-04-25T11:43:49.488Z,25.60
2019-04-25T11:46:18.323Z,25.60
2019-04-25T11:48:48.170Z,25.60
2019-04-25T11:51:17.684Z,25.90
2019-04-25T11:53:48.369Z,25.70
2019-04-25T11:56:17.129Z,25.90
2019-04-25T11:58:47.695Z,25.80
2019-04-25T12:01:17.320Z,25.50
2019-04-25T12:03:47.917Z,25.50
2019-04-25T12:06:17.493Z,25.00
2019-04-25T12:08:46.835Z,24.20
2019-04-25T12:11:16.808Z,23.90
2019-04-25T12:13:47.822Z,23.50
2019-04-25T12:16:17.393Z,23.10
2019-04-25T12:18:48.126Z,23.00
2019-04-25T12:21:16.904Z,22.70
2019-04-25T12:23:47.379Z,22.50
2019-04-25T12:26:16.271Z,22.30
2019-04-25T12:28:45.938Z,22.20
2019-04-25T12:31:14.846Z,22.10
2019-04-25T12:33:47.250Z,22.20
2019-04-25T12:36:14.978Z,22.40
2019-04-25T12:38:44.973Z,22.50
2019-04-25T12:41:13.756Z,22.60
2019-04-25T12:43:45.661Z,22.70
2019-04-25T12:46:27.833Z,23.60
2019-04-25T12:48:56.294Z,25.20
2019-04-25T12:51:24.776Z,26.60
2019-04-25T12:53:54.695Z,28.00
2019-04-25T12:56:24.800Z,29.10
2019-04-25T12:58:54.565Z,29.50
2019-04-25T13:01:24.857Z,29.50
2019-04-25T13:03:55.420Z,29.50
2019-04-25T13:06:24.057Z,30.30
2019-04-25T13:08:54.270Z,31.20
2019-04-25T13:11:24.037Z,31.70
2019-04-25T13:13:52.600Z,32.00
2019-04-25T13:16:21.134Z,31.90
2019-04-25T13:18:49.635Z,32.60
2019-04-25T13:21:18.532Z,32.60
2019-04-25T13:23:47.428Z,32.80
2019-04-25T13:26:17.794Z,32.80
2019-04-25T13:28:48.066Z,32.90
2019-04-25T13:31:30.181Z,32.90
2019-04-25T13:34:01.522Z,33.50
2019-04-25T13:36:30.194Z,33.60
2019-04-25T13:38:58.638Z,33.60
2019-04-25T13:41:27.418Z,33.20
2019-04-25T13:43:56.634Z,33.30
2019-04-25T13:46:27.523Z,34.20
2019-04-25T13:48:56.182Z,34.80
2019-04-25T13:51:26.097Z,34.70
2019-04-25T13:53:54.749Z,34.40
2019-04-25T13:56:25.857Z,34.20
2019-04-25T13:58:54.274Z,34.40
2019-04-25T14:02:22.717Z,33.50
2019-04-25T14:04:51.303Z,32.50
2019-04-25T14:07:20.662Z,30.90
2019-04-25T14:09:50.213Z,29.60
2019-04-25T14:12:18.957Z,28.90
2019-04-25T14:15:08.780Z,28.70
2019-04-25T14:17:55.096Z,29.00
2019-04-25T14:20:26.405Z,30.60
2019-04-25T14:22:55.306Z,31.90
2019-04-25T14:25:26.889Z,32.30
2019-04-25T14:27:54.692Z,31.50
2019-04-25T14:30:25.251Z,31.20
2019-04-25T14:32:55.077Z,31.10
2019-04-25T14:35:24.157Z,30.70
2019-04-25T14:37:53.925Z,30.30
2019-04-25T14:40:24.712Z,30.00
2019-04-25T14:42:53.545Z,29.70
2019-04-25T14:45:22.697Z,29.40
2019-04-25T14:47:51.270Z,28.90
2019-04-25T14:50:20.070Z,28.60
2019-04-25T14:52:48.761Z,28.40
2019-04-25T14:55:18.988Z,28.70
2019-04-25T14:57:47.487Z,29.70
2019-04-25T15:00:23.991Z,30.90
2019-04-25T15:02:54.274Z,32.00
2019-04-25T15:05:23.431Z,33.10
2019-04-25T15:07:52.142Z,33.00
2019-04-25T15:10:20.606Z,32.70
2019-04-25T15:12:49.024Z,32.20
2019-04-25T15:15:17.675Z,31.60
2019-04-25T15:17:46.842Z,31.00
2019-04-25T15:20:15.943Z,30.40
2019-04-25T15:22:44.378Z,29.90
2019-04-25T15:25:12.946Z,29.50
2019-04-25T15:27:41.435Z,29.50
2019-04-25T15:30:11.830Z,29.20
2019-04-25T15:32:40.265Z,29.30
2019-04-25T15:35:10.380Z,28.90
2019-04-25T15:37:49.249Z,28.80
2019-04-25T15:40:22.135Z,28.40
2019-04-25T15:42:58.054Z,28.10
2019-04-25T15:45:28.561Z,28.00
2019-04-25T15:47:57.139Z,28.10
2019-04-25T15:50:26.403Z,28.20
2019-04-25T15:52:55.320Z,28.40
2019-04-25T15:55:24.136Z,28.30
2019-04-25T15:57:52.713Z,28.20
2019-04-25T16:00:28.880Z,28.20
2019-04-25T16:02:57.378Z,28.30
2019-04-25T16:05:26.612Z,28.10
2019-04-25T16:07:55.153Z,28.10
2019-04-25T16:10:23.709Z,28.20
2019-04-25T16:12:52.154Z,28.10
2019-04-25T16:15:20.684Z,27.90
2019-04-25T16:17:49.135Z,27.80
2019-04-25T16:20:17.754Z,27.70
2019-04-25T16:22:46.585Z,27.50
2019-04-25T16:25:15.628Z,27.50
2019-04-25T16:27:44.994Z,27.40
2019-04-25T16:30:14.160Z,27.40
2019-04-25T16:32:42.634Z,27.20
2019-04-25T16:35:11.050Z,27.30
2019-04-25T16:37:39.534Z,27.30
2019-04-25T16:40:08.114Z,27.30
2019-04-25T16:42:36.529Z,27.30
2019-04-25T16:45:06.651Z,27.40
2019-04-25T16:47:35.689Z,27.50
2019-04-25T16:50:06.742Z,27.50
2019-04-25T16:52:35.843Z,28.00
2019-04-25T16:55:06.460Z,28.30
2019-04-25T16:57:34.897Z,28.90
2019-04-25T17:00:05.372Z,29.60
2019-04-25T17:02:37.557Z,30.60
2019-04-25T17:05:06.720Z,31.70
2019-04-25T17:07:36.057Z,32.50
2019-04-25T17:10:06.772Z,33.10
2019-04-25T17:12:35.190Z,33.60
2019-04-25T17:15:06.137Z,33.60
2019-04-25T17:17:45.025Z,33.40
2019-04-25T17:20:18.511Z,33.20
2019-04-25T17:22:47.038Z,32.50
2019-04-25T17:25:16.020Z,32.00
2019-04-25T17:27:44.479Z,31.30
2019-04-25T17:30:13.684Z,30.80
2019-04-25T17:32:54.087Z,30.20
2019-04-25T17:35:33.581Z,29.70
2019-04-25T17:38:10.036Z,29.30
2019-04-25T17:40:38.432Z,28.80
2019-04-25T17:43:11.117Z,28.40
2019-04-25T17:45:37.050Z,28.10
2019-04-25T17:48:06.012Z,27.90
2019-04-25T17:50:34.487Z,27.60
2019-04-25T17:53:02.897Z,27.30
2019-04-25T17:55:33.135Z,27.00
2019-04-25T17:58:01.455Z,26.60
2019-04-25T18:00:35.272Z,25.90
2019-04-25T18:03:04.876Z,25.70
2019-04-25T18:05:34.154Z,25.50
2019-04-25T18:08:03.724Z,25.40
2019-04-25T18:10:34.149Z,25.20
2019-04-25T18:13:05.367Z,24.70
2019-04-25T18:15:36.469Z,24.30
2019-04-25T18:18:06.986Z,23.90
2019-04-25T18:20:37.307Z,23.60
2019-04-25T18:23:07.352Z,23.10
2019-04-25T18:25:43.309Z,22.80
2019-04-25T18:28:14.121Z,22.60
2019-04-25T18:30:43.386Z,22.30
2019-04-25T18:33:16.640Z,21.70
2019-04-25T18:35:46.509Z,21.20
2019-04-25T18:38:16.624Z,20.60
2019-04-25T18:41:01.958Z,20.30
2019-04-25T18:43:40.894Z,20.10
2019-04-25T18:46:22.935Z,20.00
2019-04-25T18:48:52.002Z,20.00
2019-04-25T18:51:20.459Z,20.00
2019-04-25T18:53:53.243Z,20.00
2019-04-25T18:56:35.386Z,19.90
2019-04-25T18:59:21.882Z,20.00
2019-04-25T19:01:54.695Z,20.20
2019-04-25T19:04:24.784Z,20.10
2019-04-25T19:06:58.114Z,19.70
2019-04-25T19:09:24.093Z,19.50
2019-04-25T19:11:52.997Z,19.50
2019-04-25T19:14:21.466Z,19.40
2019-04-25T19:16:50.260Z,19.30
2019-04-25T19:19:18.949Z,19.30
2019-04-25T19:21:48.093Z,19.20
2019-04-25T19:24:16.711Z,19.20
2019-04-25T19:26:46.097Z,19.10
2019-04-25T19:29:14.999Z,19.10
2019-04-25T19:31:44.312Z,19.00
2019-04-25T19:34:13.185Z,18.90
2019-04-25T19:36:42.734Z,19.00
2019-04-25T19:39:11.615Z,18.90
2019-04-25T19:41:41.680Z,18.90
2019-04-25T19:44:11.990Z,18.60
2019-04-25T19:46:45.023Z,18.40
2019-04-25T19:49:13.446Z,18.30
2019-04-25T19:51:43.058Z,18.20
2019-04-25T19:54:11.884Z,18.30
2019-04-25T19:56:41.244Z,18.20
2019-04-25T19:59:10.426Z,18.10
2019-04-25T20:01:38.837Z,18.10
2019-04-25T20:04:27.183Z,18.00
2019-04-25T20:07:09.362Z,18.00
2019-04-25T20:09:51.922Z,18.00
2019-04-25T20:12:22.063Z,18.10
2019-04-25T20:14:51.340Z,18.00
2019-04-25T20:17:20.170Z,17.80
2019-04-25T20:19:49.743Z,17.80
2019-04-25T20:22:18.352Z,17.80
2019-04-25T20:24:48.251Z,17.60
2019-04-25T20:27:16.981Z,17.40
2019-04-25T20:29:46.517Z,17.20
2019-04-25T20:32:15.470Z,17.10
2019-04-25T20:34:44.615Z,16.90
2019-04-25T20:37:14.477Z,16.90
2019-04-25T20:39:42.960Z,16.90
2019-04-25T20:42:11.382Z,16.80
2019-04-25T20:44:39.799Z,16.80
2019-04-25T20:47:08.271Z,16.90
2019-04-25T20:49:36.765Z,16.90
2019-04-25T20:52:05.230Z,16.90
2019-04-25T20:54:33.679Z,16.80
2019-04-25T20:57:02.070Z,16.80
2019-04-25T20:59:30.584Z,16.80
2019-04-25T21:01:59.313Z,16.70
2019-04-25T21:04:41.369Z,16.70
2019-04-25T21:07:10.522Z,16.60
2019-04-25T21:09:39.268Z,16.50
2019-04-25T21:12:08.139Z,16.30
2019-04-25T21:14:53.825Z,16.30
2019-04-25T21:17:26.732Z,16.10
2019-04-25T21:19:56.806Z,16.00
2019-04-25T21:22:25.227Z,16.00
2019-04-25T21:24:53.768Z,16.00
2019-04-25T21:27:22.538Z,16.00
2019-04-25T21:29:51.981Z,16.00
2019-04-25T21:32:22.344Z,16.10
2019-04-25T21:34:51.690Z,16.00
2019-04-25T21:37:21.433Z,15.90
2019-04-25T21:39:52.732Z,15.90
2019-04-25T21:42:41.961Z,15.80
2019-04-25T21:45:10.783Z,15.90
2019-04-25T21:47:39.216Z,15.80
2019-04-25T21:50:08.167Z,15.80
2019-04-25T21:52:36.837Z,15.70
2019-04-25T21:55:06.475Z,15.70
2019-04-25T21:57:35.078Z,15.70
2019-04-25T22:00:09.310Z,15.80
2019-04-25T22:02:38.200Z,15.80
2019-04-25T22:05:08.241Z,15.90
2019-04-25T22:07:37.045Z,15.90
2019-04-25T22:10:08.579Z,16.10
2019-04-25T22:12:37.230Z,16.20
2019-04-25T22:15:08.816Z,16.20
2019-04-25T22:17:37.452Z,16.20
2019-04-25T22:20:06.874Z,16.20
2019-04-25T22:22:35.286Z,16.30
2019-04-25T22:25:04.677Z,16.30
2019-04-25T22:27:36.662Z,16.10
2019-04-25T22:30:09.866Z,16.10
2019-04-25T22:32:46.029Z,16.00
2019-04-25T22:35:31.092Z,16.20
2019-04-25T22:38:02.175Z,16.10
2019-04-25T22:40:30.977Z,16.10
2019-04-25T22:43:00.432Z,16.10
2019-04-25T22:45:29.187Z,16.10
2019-04-25T22:47:57.872Z,16.10
2019-04-25T22:50:26.512Z,16.00
2019-04-25T22:52:54.920Z,15.80
2019-04-25T22:55:23.376Z,15.70
2019-04-25T22:57:51.794Z,15.60
2019-04-25T23:00:22.022Z,15.50
2019-04-25T23:02:55.412Z,15.50
2019-04-25T23:05:25.506Z,15.50
2019-04-25T23:07:54.238Z,15.60
2019-04-25T23:10:23.039Z,15.60
2019-04-25T23:12:51.635Z,15.60
2019-04-25T23:15:20.173Z,15.70
2019-04-25T23:17:48.936Z,15.70
2019-04-25T23:20:18.081Z,15.90
2019-04-25T23:22:46.549Z,15.90
2019-04-25T23:25:17.171Z,16.00
2019-04-25T23:27:54.469Z,15.90
2019-04-25T23:30:24.776Z,15.80
2019-04-25T23:32:53.209Z,15.70
2019-04-25T23:35:29.452Z,15.70
2019-04-25T23:37:52.117Z,15.80
2019-04-25T23:40:20.626Z,15.70
2019-04-25T23:42:49.180Z,15.50
2019-04-25T23:45:18.157Z,15.60
2019-04-25T23:47:46.810Z,15.60
2019-04-25T23:50:16.764Z,15.80
2019-04-25T23:52:45.467Z,15.70
2019-04-25T23:55:14.976Z,15.70
2019-04-25T23:57:43.653Z,15.70
